sensor_id;sensor_type;location;lat;lon;timestamp;temperature;humidity
11379;DHT22;5744;59.392;16.748;2023-07-13T08:00:21;21.80;99.90
11379;DHT22;5744;59.392;16.748;2023-07-13T08:02:50;24.20;99.90
11379;DHT22;5744;59.392;16.748;2023-07-13T08:05:19;23.60;99.90
11379;DHT22;5744;59.392;16.748;2023-07-13T08:07:47;23.30;99.90
11379;DHT22;5744;59.392;16.748;2023-07-13T08:10:16;23.30;99.90
11379;DHT22;5744;59.392;16.748;2023-07-13T08:12:44;22.50;99.90
11379;DHT22;5744;59.392;16.748;2023-07-13T08:15:14;21.80;99.90
11379;DHT22;5744;59.392;16.748;2023-07-13T08:17:45;21.10;99.90
11379;DHT22;5744;59.392;16.748;2023-07-13T08:20:14;21.10;99.90
11379;DHT22;5744;59.392;16.748;2023-07-13T08:22:43;21.60;99.90
11379;DHT22;5744;59.392;16.748;2023-07-13T08:25:11;21.80;99.90
11379;DHT22;5744;59.392;16.748;2023-07-13T08:27:40;21.60;99.90
11379;DHT22;5744;59.392;16.748;2023-07-13T08:30:09;21.80;99.90
11379;DHT22;5744;59.392;16.748;2023-07-13T08:32:38;22.10;99.90
11379;DHT22;5744;59.392;16.748;2023-07-13T08:35:09;22.00;99.90
11379;DHT22;5744;59.392;16.748;2023-07-13T08:37:39;21.60;99.90
11379;DHT22;5744;59.392;16.748;2023-07-13T08:40:08;21.30;99.90
11379;DHT22;5744;59.392;16.748;2023-07-13T08:42:37;21.50;99.90
11379;DHT22;5744;59.392;16.748;2023-07-13T08:45:08;21.80;99.90
11379;DHT22;5744;59.392;16.748;2023-07-13T08:47:43;21.50;99.90
11379;DHT22;5744;59.392;16.748;2023-07-13T08:50:19;21.60;99.90
11379;DHT22;5744;59.392;16.748;2023-07-13T08:52:49;21.70;99.90
11379;DHT22;5744;59.392;16.748;2023-07-13T08:55:19;21.40;99.90
11379;DHT22;5744;59.392;16.748;2023-07-13T08:57:50;21.50;99.90
11379;DHT22;5744;59.392;16.748;2023-07-13T09:00:21;21.20;99.90
11379;DHT22;5744;59.392;16.748;2023-07-13T09:02:52;20.70;99.90
11379;DHT22;5744;59.392;16.748;2023-07-13T09:05:25;20.30;99.90
11379;DHT22;5744;59.392;16.748;2023-07-13T09:07:59;20.40;99.90
11379;DHT22;5744;59.392;16.748;2023-07-13T09:10:31;20.50;99.90
11379;DHT22;5744;59.392;16.748;2023-07-13T09:13:04;20.70;99.90
11379;DHT22;5744;59.392;16.748;2023-07-13T09:15:34;20.90;99.90
11379;DHT22;5744;59.392;16.748;2023-07-13T09:18:06;21.10;99.90
11379;DHT22;5744;59.392;16.748;2023-07-13T09:20:40;21.30;99.90
11379;DHT22;5744;59.392;16.748;2023-07-13T09:23:11;21.30;99.90
11379;DHT22;5744;59.392;16.748;2023-07-13T09:25:41;21.30;99.90
11379;DHT22;5744;59.392;16.748;2023-07-13T09:28:11;21.40;99.90
11379;DHT22;5744;59.392;16.748;2023-07-13T09:30:46;21.50;99.90
11379;DHT22;5744;59.392;16.748;2023-07-13T09:33:15;21.70;99.90
11379;DHT22;5744;59.392;16.748;2023-07-13T09:35:47;22.10;99.90
11379;DHT22;5744;59.392;16.748;2023-07-13T09:38:16;22.50;99.90
11379;DHT22;5744;59.392;16.748;2023-07-13T09:43:34;22.50;99.90
11379;DHT22;5744;59.392;16.748;2023-07-13T09:46:03;22.80;99.90
11379;DHT22;5744;59.392;16.748;2023-07-13T09:48:34;22.90;99.90
11379;DHT22;5744;59.392;16.748;2023-07-13T09:51:10;22.40;99.90
11379;DHT22;5744;59.392;16.748;2023-07-13T09:53:41;22.50;99.90
11379;DHT22;5744;59.392;16.748;2023-07-13T09:56:18;22.80;99.90
11379;DHT22;5744;59.392;16.748;2023-07-13T09:58:47;23.40;99.90
11379;DHT22;5744;59.392;16.748;2023-07-13T10:01:16;24.30;99.90
11379;DHT22;5744;59.392;16.748;2023-07-13T10:03:59;25.10;99.90
11379;DHT22;5744;59.392;16.748;2023-07-13T10:06:30;25.50;99.90
11379;DHT22;5744;59.392;16.748;2023-07-13T10:08:58;25.40;99.90
11379;DHT22;5744;59.392;16.748;2023-07-13T10:11:28;25.30;99.90
11379;DHT22;5744;59.392;16.748;2023-07-13T10:14:00;25.10;99.90
11379;DHT22;5744;59.392;16.748;2023-07-13T10:16:30;24.50;99.90
11379;DHT22;5744;59.392;16.748;2023-07-13T10:19:00;23.80;99.90
11379;DHT22;5744;59.392;16.748;2023-07-13T10:21:33;23.40;99.90
11379;DHT22;5744;59.392;16.748;2023-07-13T10:24:05;23.70;99.90
11379;DHT22;5744;59.392;16.748;2023-07-13T10:26:39;23.50;99.90
11379;DHT22;5744;59.392;16.748;2023-07-13T10:29:11;23.00;99.90
11379;DHT22;5744;59.392;16.748;2023-07-13T10:31:44;22.60;99.90
11379;DHT22;5744;59.392;16.748;2023-07-13T10:34:12;22.30;99.90
11379;DHT22;5744;59.392;16.748;2023-07-13T10:36:45;22.80;99.90
11379;DHT22;5744;59.392;16.748;2023-07-13T10:39:15;23.40;99.90
11379;DHT22;5744;59.392;16.748;2023-07-13T10:41:46;23.90;99.90
11379;DHT22;5744;59.392;16.748;2023-07-13T10:44:18;24.60;99.90
11379;DHT22;5744;59.392;16.748;2023-07-13T10:46:51;24.90;99.90
11379;DHT22;5744;59.392;16.748;2023-07-13T10:49:19;25.30;99.90
11379;DHT22;5744;59.392;16.748;2023-07-13T10:51:51;25.20;99.90
11379;DHT22;5744;59.392;16.748;2023-07-13T10:54:21;24.70;99.90
11379;DHT22;5744;59.392;16.748;2023-07-13T10:56:51;24.50;99.90
11379;DHT22;5744;59.392;16.748;2023-07-13T10:59:24;24.00;99.90
11379;DHT22;5744;59.392;16.748;2023-07-13T11:01:57;23.90;99.90
11379;DHT22;5744;59.392;16.748;2023-07-13T11:04:27;23.90;99.90
11379;DHT22;5744;59.392;16.748;2023-07-13T11:07:00;23.80;99.90
11379;DHT22;5744;59.392;16.748;2023-07-13T11:09:39;23.60;99.90
11379;DHT22;5744;59.392;16.748;2023-07-13T11:12:26;22.90;99.90
11379;DHT22;5744;59.392;16.748;2023-07-13T11:15:05;22.30;99.90
11379;DHT22;5744;59.392;16.748;2023-07-13T11:17:49;21.80;99.90
11379;DHT22;5744;59.392;16.748;2023-07-13T11:20:22;21.70;99.90
11379;DHT22;5744;59.392;16.748;2023-07-13T11:23:06;21.90;99.90
11379;DHT22;5744;59.392;16.748;2023-07-13T11:25:36;22.80;99.90
11379;DHT22;5744;59.392;16.748;2023-07-13T11:28:16;23.80;99.90
11379;DHT22;5744;59.392;16.748;2023-07-13T11:30:46;24.50;99.90
11379;DHT22;5744;59.392;16.748;2023-07-13T11:33:17;25.00;99.90
11379;DHT22;5744;59.392;16.748;2023-07-13T11:35:50;25.30;99.90
11379;DHT22;5744;59.392;16.748;2023-07-13T11:38:22;25.40;99.90
11379;DHT22;5744;59.392;16.748;2023-07-13T11:40:53;25.50;99.90
11379;DHT22;5744;59.392;16.748;2023-07-13T11:43:22;25.60;99.90
11379;DHT22;5744;59.392;16.748;2023-07-13T11:45:51;25.20;99.90
11379;DHT22;5744;59.392;16.748;2023-07-13T11:48:21;25.10;99.90
11379;DHT22;5744;59.392;16.748;2023-07-13T11:50:51;24.80;99.90
11379;DHT22;5744;59.392;16.748;2023-07-13T11:53:22;24.40;99.90
11379;DHT22;5744;59.392;16.748;2023-07-13T11:55:54;24.00;99.90
11379;DHT22;5744;59.392;16.748;2023-07-13T11:58:23;24.20;99.90
11379;DHT22;5744;59.392;16.748;2023-07-13T12:00:53;24.70;99.90
11379;DHT22;5744;59.392;16.748;2023-07-13T12:03:23;25.20;99.90
11379;DHT22;5744;59.392;16.748;2023-07-13T12:05:56;25.60;99.90
11379;DHT22;5744;59.392;16.748;2023-07-13T12:08:28;25.90;99.90
11379;DHT22;5744;59.392;16.748;2023-07-13T12:10:58;26.00;99.90
11379;DHT22;5744;59.392;16.748;2023-07-13T12:13:34;26.20;99.90
11379;DHT22;5744;59.392;16.748;2023-07-13T12:16:07;26.00;99.90
11379;DHT22;5744;59.392;16.748;2023-07-13T12:18:39;25.30;99.90
11379;DHT22;5744;59.392;16.748;2023-07-13T12:21:10;24.80;99.90
11379;DHT22;5744;59.392;16.748;2023-07-13T12:23:44;24.40;99.90
11379;DHT22;5744;59.392;16.748;2023-07-13T12:26:13;24.40;99.90
11379;DHT22;5744;59.392;16.748;2023-07-13T12:28:44;24.60;99.90
11379;DHT22;5744;59.392;16.748;2023-07-13T12:33:57;25.20;99.90
11379;DHT22;5744;59.392;16.748;2023-07-13T12:36:26;24.50;99.90
11379;DHT22;5744;59.392;16.748;2023-07-13T12:39:02;24.20;99.90
11379;DHT22;5744;59.392;16.748;2023-07-13T12:41:32;23.50;99.90
11379;DHT22;5744;59.392;16.748;2023-07-13T12:44:01;23.00;99.90
11379;DHT22;5744;59.392;16.748;2023-07-13T12:46:30;22.50;99.90
11379;DHT22;5744;59.392;16.748;2023-07-13T12:48:58;22.00;99.90
11379;DHT22;5744;59.392;16.748;2023-07-13T12:51:27;22.20;99.90
11379;DHT22;5744;59.392;16.748;2023-07-13T12:53:57;22.80;99.90
11379;DHT22;5744;59.392;16.748;2023-07-13T12:56:28;23.40;99.90
11379;DHT22;5744;59.392;16.748;2023-07-13T12:58:58;23.80;99.90
11379;DHT22;5744;59.392;16.748;2023-07-13T13:01:28;23.70;99.90
11379;DHT22;5744;59.392;16.748;2023-07-13T13:04:00;23.60;99.90
11379;DHT22;5744;59.392;16.748;2023-07-13T13:06:29;23.70;99.90
11379;DHT22;5744;59.392;16.748;2023-07-13T13:08:58;24.10;99.90
11379;DHT22;5744;59.392;16.748;2023-07-13T13:11:31;24.50;99.90
11379;DHT22;5744;59.392;16.748;2023-07-13T13:14:00;24.80;99.90
11379;DHT22;5744;59.392;16.748;2023-07-13T13:16:30;24.70;99.90
11379;DHT22;5744;59.392;16.748;2023-07-13T13:19:01;25.00;99.90
11379;DHT22;5744;59.392;16.748;2023-07-13T13:21:31;25.40;99.90
11379;DHT22;5744;59.392;16.748;2023-07-13T13:24:00;25.00;99.90
11379;DHT22;5744;59.392;16.748;2023-07-13T13:26:31;24.20;99.90
11379;DHT22;5744;59.392;16.748;2023-07-13T13:29:00;23.50;99.90
11379;DHT22;5744;59.392;16.748;2023-07-13T13:31:28;22.90;99.90
11379;DHT22;5744;59.392;16.748;2023-07-13T13:33:57;22.50;99.90
11379;DHT22;5744;59.392;16.748;2023-07-13T13:36:26;22.30;99.90
11379;DHT22;5744;59.392;16.748;2023-07-13T13:38:54;21.80;99.90
11379;DHT22;5744;59.392;16.748;2023-07-13T13:41:23;21.50;99.90
11379;DHT22;5744;59.392;16.748;2023-07-13T13:43:54;21.20;99.90
11379;DHT22;5744;59.392;16.748;2023-07-13T13:46:23;21.20;99.90
11379;DHT22;5744;59.392;16.748;2023-07-13T13:48:55;21.30;99.90
11379;DHT22;5744;59.392;16.748;2023-07-13T13:51:24;21.40;99.90
11379;DHT22;5744;59.392;16.748;2023-07-13T13:53:52;21.70;99.90
11379;DHT22;5744;59.392;16.748;2023-07-13T13:56:21;21.60;99.90
11379;DHT22;5744;59.392;16.748;2023-07-13T13:58:54;21.60;99.90
11379;DHT22;5744;59.392;16.748;2023-07-13T14:01:22;21.70;99.90
11379;DHT22;5744;59.392;16.748;2023-07-13T14:03:51;21.90;99.90
11379;DHT22;5744;59.392;16.748;2023-07-13T14:06:20;22.30;99.90
11379;DHT22;5744;59.392;16.748;2023-07-13T14:08:48;22.60;99.90
11379;DHT22;5744;59.392;16.748;2023-07-13T14:11:18;22.60;99.90
11379;DHT22;5744;59.392;16.748;2023-07-13T14:13:48;22.60;99.90
11379;DHT22;5744;59.392;16.748;2023-07-13T14:16:20;22.50;99.90
11379;DHT22;5744;59.392;16.748;2023-07-13T14:18:49;22.40;99.90
11379;DHT22;5744;59.392;16.748;2023-07-13T14:21:19;22.80;99.90
11379;DHT22;5744;59.392;16.748;2023-07-13T14:23:48;23.00;99.90
11379;DHT22;5744;59.392;16.748;2023-07-13T14:26:19;23.00;99.90
11379;DHT22;5744;59.392;16.748;2023-07-13T14:28:48;23.10;99.90
11379;DHT22;5744;59.392;16.748;2023-07-13T14:31:21;23.10;99.90
11379;DHT22;5744;59.392;16.748;2023-07-13T14:33:50;22.90;99.90
11379;DHT22;5744;59.392;16.748;2023-07-13T14:36:26;22.80;99.90
11379;DHT22;5744;59.392;16.748;2023-07-13T14:38:55;23.00;99.90
11379;DHT22;5744;59.392;16.748;2023-07-13T14:41:24;23.20;99.90
11379;DHT22;5744;59.392;16.748;2023-07-13T14:43:52;23.20;99.90
11379;DHT22;5744;59.392;16.748;2023-07-13T14:46:26;23.20;99.90
11379;DHT22;5744;59.392;16.748;2023-07-13T14:49:00;23.20;99.90
11379;DHT22;5744;59.392;16.748;2023-07-13T14:51:29;23.00;99.90
11379;DHT22;5744;59.392;16.748;2023-07-13T14:53:58;23.00;99.90
11379;DHT22;5744;59.392;16.748;2023-07-13T14:56:27;22.90;99.90
11379;DHT22;5744;59.392;16.748;2023-07-13T14:58:55;22.80;99.90
11379;DHT22;5744;59.392;16.748;2023-07-13T15:01:26;22.60;99.90
11379;DHT22;5744;59.392;16.748;2023-07-13T15:03:56;22.60;99.90
11379;DHT22;5744;59.392;16.748;2023-07-13T15:06:25;22.60;99.90
11379;DHT22;5744;59.392;16.748;2023-07-13T15:08:54;22.70;99.90
11379;DHT22;5744;59.392;16.748;2023-07-13T15:11:23;22.70;99.90
11379;DHT22;5744;59.392;16.748;2023-07-13T15:13:51;22.60;99.90
11379;DHT22;5744;59.392;16.748;2023-07-13T15:16:21;22.60;99.90
11379;DHT22;5744;59.392;16.748;2023-07-13T15:18:53;22.60;99.90
11379;DHT22;5744;59.392;16.748;2023-07-13T15:21:22;22.30;99.90
11379;DHT22;5744;59.392;16.748;2023-07-13T15:23:53;22.00;99.90
11379;DHT22;5744;59.392;16.748;2023-07-13T15:26:22;21.70;99.90
11379;DHT22;5744;59.392;16.748;2023-07-13T15:28:50;21.70;99.90
11379;DHT22;5744;59.392;16.748;2023-07-13T15:31:19;21.70;99.90
11379;DHT22;5744;59.392;16.748;2023-07-13T15:33:51;21.60;99.90
11379;DHT22;5744;59.392;16.748;2023-07-13T15:36:23;21.50;99.90
11379;DHT22;5744;59.392;16.748;2023-07-13T15:38:52;21.40;99.90
11379;DHT22;5744;59.392;16.748;2023-07-13T15:41:22;21.30;99.90
11379;DHT22;5744;59.392;16.748;2023-07-13T15:43:51;21.10;99.90
11379;DHT22;5744;59.392;16.748;2023-07-13T15:46:21;21.10;99.90
11379;DHT22;5744;59.392;16.748;2023-07-13T15:48:50;21.00;99.90
11379;DHT22;5744;59.392;16.748;2023-07-13T15:51:20;20.80;99.90
11379;DHT22;5744;59.392;16.748;2023-07-13T15:53:52;20.80;99.90
11379;DHT22;5744;59.392;16.748;2023-07-13T15:56:22;20.60;99.90
11379;DHT22;5744;59.392;16.748;2023-07-13T15:58:51;20.70;99.90
11379;DHT22;5744;59.392;16.748;2023-07-13T16:01:21;20.60;99.90
11379;DHT22;5744;59.392;16.748;2023-07-13T16:03:50;20.80;99.90
11379;DHT22;5744;59.392;16.748;2023-07-13T16:06:20;20.80;99.90
11379;DHT22;5744;59.392;16.748;2023-07-13T16:08:53;20.90;99.90
11379;DHT22;5744;59.392;16.748;2023-07-13T16:11:22;21.10;99.90
11379;DHT22;5744;59.392;16.748;2023-07-13T16:13:51;21.10;99.90
11379;DHT22;5744;59.392;16.748;2023-07-13T16:16:20;21.20;99.90
11379;DHT22;5744;59.392;16.748;2023-07-13T16:18:51;20.90;99.90
11379;DHT22;5744;59.392;16.748;2023-07-13T16:42:19;20.60;99.90
11379;DHT22;5744;59.392;16.748;2023-07-13T16:44:48;20.60;99.90
11379;DHT22;5744;59.392;16.748;2023-07-13T16:47:17;20.70;99.90
11379;DHT22;5744;59.392;16.748;2023-07-13T16:49:46;20.80;99.90
11379;DHT22;5744;59.392;16.748;2023-07-13T16:52:16;20.80;99.90
11379;DHT22;5744;59.392;16.748;2023-07-13T16:54:45;20.70;99.90
11379;DHT22;5744;59.392;16.748;2023-07-13T16:57:15;20.70;99.90
11379;DHT22;5744;59.392;16.748;2023-07-13T16:59:47;20.80;99.90
11379;DHT22;5744;59.392;16.748;2023-07-13T17:02:30;20.80;99.90
11379;DHT22;5744;59.392;16.748;2023-07-13T17:05:00;20.80;99.90
11379;DHT22;5744;59.392;16.748;2023-07-13T17:07:28;20.70;99.90
11379;DHT22;5744;59.392;16.748;2023-07-13T17:09:57;20.70;99.90
11379;DHT22;5744;59.392;16.748;2023-07-13T17:12:26;20.60;99.90
11379;DHT22;5744;59.392;16.748;2023-07-13T17:14:57;20.30;99.90
11379;DHT22;5744;59.392;16.748;2023-07-13T17:17:26;20.30;99.90
11379;DHT22;5744;59.392;16.748;2023-07-13T17:19:57;20.10;99.90
11379;DHT22;5744;59.392;16.748;2023-07-13T17:22:28;20.10;99.90
11379;DHT22;5744;59.392;16.748;2023-07-13T17:24:57;20.10;99.90
11379;DHT22;5744;59.392;16.748;2023-07-13T17:27:26;20.00;99.90
11379;DHT22;5744;59.392;16.748;2023-07-13T17:30:00;20.00;99.90
11379;DHT22;5744;59.392;16.748;2023-07-13T17:32:29;20.00;99.90
11379;DHT22;5744;59.392;16.748;2023-07-13T17:34:58;20.00;99.90
11379;DHT22;5744;59.392;16.748;2023-07-13T17:37:26;20.00;99.90
11379;DHT22;5744;59.392;16.748;2023-07-13T17:39:55;19.90;99.90
11379;DHT22;5744;59.392;16.748;2023-07-13T17:42:24;20.00;99.90
11379;DHT22;5744;59.392;16.748;2023-07-13T17:44:52;20.00;99.90
11379;DHT22;5744;59.392;16.748;2023-07-13T17:47:25;19.90;99.90
11379;DHT22;5744;59.392;16.748;2023-07-13T17:49:54;19.90;99.90
11379;DHT22;5744;59.392;16.748;2023-07-13T17:52:23;19.80;99.90
11379;DHT22;5744;59.392;16.748;2023-07-13T17:54:55;19.80;99.90
11379;DHT22;5744;59.392;16.748;2023-07-13T17:57:23;19.70;99.90
11379;DHT22;5744;59.392;16.748;2023-07-13T17:59:53;19.70;99.90
11379;DHT22;5744;59.392;16.748;2023-07-13T18:02:25;19.70;99.90
11379;DHT22;5744;59.392;16.748;2023-07-13T18:04:56;19.70;99.90
11379;DHT22;5744;59.392;16.748;2023-07-13T18:07:26;19.70;99.90
11379;DHT22;5744;59.392;16.748;2023-07-13T18:09:55;19.70;99.90
11379;DHT22;5744;59.392;16.748;2023-07-13T18:12:24;19.60;99.90
11379;DHT22;5744;59.392;16.748;2023-07-13T18:14:53;19.60;99.90
11379;DHT22;5744;59.392;16.748;2023-07-13T18:17:21;19.50;99.90
11379;DHT22;5744;59.392;16.748;2023-07-13T18:19:52;19.50;99.90
11379;DHT22;5744;59.392;16.748;2023-07-13T18:22:22;19.30;99.90
11379;DHT22;5744;59.392;16.748;2023-07-13T18:24:50;19.30;99.90
11379;DHT22;5744;59.392;16.748;2023-07-13T18:27:19;19.20;99.90
11379;DHT22;5744;59.392;16.748;2023-07-13T18:29:47;19.20;99.90
11379;DHT22;5744;59.392;16.748;2023-07-13T18:32:16;19.20;99.90
11379;DHT22;5744;59.392;16.748;2023-07-13T18:34:46;19.20;99.90
11379;DHT22;5744;59.392;16.748;2023-07-13T18:37:20;19.20;99.90
11379;DHT22;5744;59.392;16.748;2023-07-13T18:39:50;19.20;99.90
11379;DHT22;5744;59.392;16.748;2023-07-13T18:42:19;19.10;99.90
11379;DHT22;5744;59.392;16.748;2023-07-13T18:44:49;19.00;99.90
11379;DHT22;5744;59.392;16.748;2023-07-13T18:47:19;19.10;99.90
11379;DHT22;5744;59.392;16.748;2023-07-13T18:49:50;18.90;99.90
11379;DHT22;5744;59.392;16.748;2023-07-13T18:52:24;18.90;99.90
11379;DHT22;5744;59.392;16.748;2023-07-13T18:54:52;18.90;99.90
11379;DHT22;5744;59.392;16.748;2023-07-13T18:57:21;18.70;99.90
11379;DHT22;5744;59.392;16.748;2023-07-13T18:59:49;18.70;99.90
11379;DHT22;5744;59.392;16.748;2023-07-13T19:02:19;18.60;99.90
11379;DHT22;5744;59.392;16.748;2023-07-13T19:04:47;18.50;99.90
11379;DHT22;5744;59.392;16.748;2023-07-13T19:07:16;18.50;99.90
11379;DHT22;5744;59.392;16.748;2023-07-13T19:09:47;18.50;99.90
11379;DHT22;5744;59.392;16.748;2023-07-13T19:12:16;18.40;99.90
11379;DHT22;5744;59.392;16.748;2023-07-13T19:14:46;18.40;99.90
11379;DHT22;5744;59.392;16.748;2023-07-13T19:17:15;18.40;99.90
11379;DHT22;5744;59.392;16.748;2023-07-13T19:19:44;18.40;99.90
11379;DHT22;5744;59.392;16.748;2023-07-13T19:22:13;18.30;99.90
11379;DHT22;5744;59.392;16.748;2023-07-13T19:24:42;18.40;99.90
11379;DHT22;5744;59.392;16.748;2023-07-13T19:27:13;18.30;99.90
11379;DHT22;5744;59.392;16.748;2023-07-13T19:29:42;18.30;99.90
11379;DHT22;5744;59.392;16.748;2023-07-13T19:32:11;18.30;99.90
11379;DHT22;5744;59.392;16.748;2023-07-13T19:34:40;18.30;99.90
11379;DHT22;5744;59.392;16.748;2023-07-13T19:37:13;18.20;99.90
11379;DHT22;5744;59.392;16.748;2023-07-13T19:39:44;18.10;99.90
11379;DHT22;5744;59.392;16.748;2023-07-13T19:42:19;18.10;99.90
11379;DHT22;5744;59.392;16.748;2023-07-13T19:44:49;18.00;99.90
11379;DHT22;5744;59.392;16.748;2023-07-13T19:47:18;18.00;99.90
11379;DHT22;5744;59.392;16.748;2023-07-13T19:49:47;17.90;99.90
11379;DHT22;5744;59.392;16.748;2023-07-13T19:52:16;17.80;99.90
11379;DHT22;5744;59.392;16.748;2023-07-13T19:54:45;17.80;99.90
11379;DHT22;5744;59.392;16.748;2023-07-13T19:57:19;17.70;99.90
11379;DHT22;5744;59.392;16.748;2023-07-13T19:59:49;17.60;99.90
11379;DHT22;5744;59.392;16.748;2023-07-13T20:02:19;17.60;99.90
11379;DHT22;5744;59.392;16.748;2023-07-13T20:04:48;17.50;99.90
11379;DHT22;5744;59.392;16.748;2023-07-13T20:07:17;17.50;99.90
11379;DHT22;5744;59.392;16.748;2023-07-13T20:09:46;17.40;99.90
11379;DHT22;5744;59.392;16.748;2023-07-13T20:12:19;17.40;99.90
11379;DHT22;5744;59.392;16.748;2023-07-13T20:14:49;17.40;99.90
11379;DHT22;5744;59.392;16.748;2023-07-13T20:17:24;17.30;99.90
11379;DHT22;5744;59.392;16.748;2023-07-13T20:19:56;17.30;99.90
11379;DHT22;5744;59.392;16.748;2023-07-13T20:22:24;17.20;99.90
11379;DHT22;5744;59.392;16.748;2023-07-13T20:24:53;17.20;99.90
11379;DHT22;5744;59.392;16.748;2023-07-13T20:27:24;17.10;99.90
11379;DHT22;5744;59.392;16.748;2023-07-13T20:29:52;17.00;99.90
11379;DHT22;5744;59.392;16.748;2023-07-13T20:32:22;16.90;99.90
11379;DHT22;5744;59.392;16.748;2023-07-13T20:34:51;16.90;99.90
11379;DHT22;5744;59.392;16.748;2023-07-13T20:37:29;16.80;99.90
11379;DHT22;5744;59.392;16.748;2023-07-13T20:39:58;16.80;99.90
11379;DHT22;5744;59.392;16.748;2023-07-13T20:42:29;16.70;99.90
11379;DHT22;5744;59.392;16.748;2023-07-13T20:44:58;16.70;99.90
11379;DHT22;5744;59.392;16.748;2023-07-13T20:47:26;16.70;99.90
11379;DHT22;5744;59.392;16.748;2023-07-13T20:49:55;16.70;99.90
11379;DHT22;5744;59.392;16.748;2023-07-13T20:52:24;16.60;99.90
11379;DHT22;5744;59.392;16.748;2023-07-13T20:54:52;16.60;99.90
11379;DHT22;5744;59.392;16.748;2023-07-13T20:57:21;16.50;99.90
11379;DHT22;5744;59.392;16.748;2023-07-13T20:59:56;16.50;99.90
11379;DHT22;5744;59.392;16.748;2023-07-13T21:02:30;16.50;99.90
11379;DHT22;5744;59.392;16.748;2023-07-13T21:05:05;16.50;99.90
11379;DHT22;5744;59.392;16.748;2023-07-13T21:07:37;16.50;99.90
11379;DHT22;5744;59.392;16.748;2023-07-13T21:10:11;16.40;99.90
11379;DHT22;5744;59.392;16.748;2023-07-13T21:12:39;16.40;99.90
11379;DHT22;5744;59.392;16.748;2023-07-13T21:15:11;16.30;99.90
11379;DHT22;5744;59.392;16.748;2023-07-13T21:17:39;16.30;99.90
11379;DHT22;5744;59.392;16.748;2023-07-13T21:20:19;16.30;99.90
11379;DHT22;5744;59.392;16.748;2023-07-13T21:22:48;16.30;99.90
11379;DHT22;5744;59.392;16.748;2023-07-13T21:25:18;16.30;99.90
11379;DHT22;5744;59.392;16.748;2023-07-13T21:27:48;16.30;99.90
11379;DHT22;5744;59.392;16.748;2023-07-13T21:30:20;16.30;99.90
11379;DHT22;5744;59.392;16.748;2023-07-13T21:32:49;16.20;99.90
11379;DHT22;5744;59.392;16.748;2023-07-13T21:35:23;16.10;99.90
11379;DHT22;5744;59.392;16.748;2023-07-13T21:37:53;16.00;99.90
11379;DHT22;5744;59.392;16.748;2023-07-13T21:40:22;15.90;99.90
11379;DHT22;5744;59.392;16.748;2023-07-13T21:42:51;15.80;99.90
11379;DHT22;5744;59.392;16.748;2023-07-13T21:45:23;15.80;99.90
11379;DHT22;5744;59.392;16.748;2023-07-13T21:47:52;15.80;99.90
11379;DHT22;5744;59.392;16.748;2023-07-13T21:50:24;15.80;99.90
11379;DHT22;5744;59.392;16.748;2023-07-13T21:52:55;15.80;99.90
11379;DHT22;5744;59.392;16.748;2023-07-13T21:55:23;15.80;99.90
11379;DHT22;5744;59.392;16.748;2023-07-13T21:57:52;15.80;99.90
11379;DHT22;5744;59.392;16.748;2023-07-13T22:00:24;15.80;99.90
11379;DHT22;5744;59.392;16.748;2023-07-13T22:02:54;15.80;99.90
11379;DHT22;5744;59.392;16.748;2023-07-13T22:05:24;15.80;99.90
11379;DHT22;5744;59.392;16.748;2023-07-13T22:07:52;15.70;99.90
11379;DHT22;5744;59.392;16.748;2023-07-13T22:10:21;15.70;99.90
11379;DHT22;5744;59.392;16.748;2023-07-13T22:12:50;15.60;99.90
11379;DHT22;5744;59.392;16.748;2023-07-13T22:15:19;15.60;99.90
11379;DHT22;5744;59.392;16.748;2023-07-13T22:17:56;15.60;99.90
11379;DHT22;5744;59.392;16.748;2023-07-13T22:20:26;15.50;99.90
11379;DHT22;5744;59.392;16.748;2023-07-13T22:22:55;15.50;99.90
11379;DHT22;5744;59.392;16.748;2023-07-13T22:25:23;15.50;99.90
11379;DHT22;5744;59.392;16.748;2023-07-13T22:27:52;15.50;99.90
11379;DHT22;5744;59.392;16.748;2023-07-13T22:30:20;15.50;99.90
11379;DHT22;5744;59.392;16.748;2023-07-13T22:32:49;15.40;99.90
11379;DHT22;5744;59.392;16.748;2023-07-13T22:35:22;15.30;99.90
11379;DHT22;5744;59.392;16.748;2023-07-13T22:37:52;15.20;99.90
11379;DHT22;5744;59.392;16.748;2023-07-13T22:40:24;15.20;99.90
11379;DHT22;5744;59.392;16.748;2023-07-13T22:42:53;15.20;99.90
11379;DHT22;5744;59.392;16.748;2023-07-13T22:45:21;15.20;99.90
11379;DHT22;5744;59.392;16.748;2023-07-13T22:47:50;15.10;99.90
11379;DHT22;5744;59.392;16.748;2023-07-13T22:50:18;15.10;99.90
11379;DHT22;5744;59.392;16.748;2023-07-13T22:52:50;15.00;99.90
11379;DHT22;5744;59.392;16.748;2023-07-13T22:55:18;15.00;99.90
11379;DHT22;5744;59.392;16.748;2023-07-13T22:57:47;15.00;99.90
11379;DHT22;5744;59.392;16.748;2023-07-13T23:00:17;15.00;99.90
11379;DHT22;5744;59.392;16.748;2023-07-13T23:02:46;15.00;99.90
11379;DHT22;5744;59.392;16.748;2023-07-13T23:05:15;14.90;99.90
11379;DHT22;5744;59.392;16.748;2023-07-13T23:07:46;14.80;99.90
11379;DHT22;5744;59.392;16.748;2023-07-13T23:10:19;14.90;99.90
11379;DHT22;5744;59.392;16.748;2023-07-13T23:12:47;14.80;99.90
11379;DHT22;5744;59.392;16.748;2023-07-13T23:15:17;14.70;99.90
11379;DHT22;5744;59.392;16.748;2023-07-13T23:17:46;14.60;99.90
11379;DHT22;5744;59.392;16.748;2023-07-13T23:20:21;14.60;99.90
11379;DHT22;5744;59.392;16.748;2023-07-13T23:22:50;14.60;99.90
11379;DHT22;5744;59.392;16.748;2023-07-13T23:25:24;14.60;99.90
11379;DHT22;5744;59.392;16.748;2023-07-13T23:27:54;14.60;99.90
11379;DHT22;5744;59.392;16.748;2023-07-13T23:30:25;14.50;99.90
11379;DHT22;5744;59.392;16.748;2023-07-13T23:32:56;14.50;99.90
11379;DHT22;5744;59.392;16.748;2023-07-13T23:35:26;14.50;99.90
11379;DHT22;5744;59.392;16.748;2023-07-13T23:37:55;14.50;99.90
11379;DHT22;5744;59.392;16.748;2023-07-13T23:40:26;14.50;99.90
11379;DHT22;5744;59.392;16.748;2023-07-13T23:42:55;14.50;99.90
11379;DHT22;5744;59.392;16.748;2023-07-13T23:45:24;14.40;99.90
11379;DHT22;5744;59.392;16.748;2023-07-13T23:47:53;14.50;99.90
11379;DHT22;5744;59.392;16.748;2023-07-13T23:50:23;14.40;99.90
11379;DHT22;5744;59.392;16.748;2023-07-13T23:52:52;14.50;99.90
11379;DHT22;5744;59.392;16.748;2023-07-13T23:55:22;14.40;99.90
11379;DHT22;5744;59.392;16.748;2023-07-13T23:57:55;14.40;99.90
